sensor_id;sensor_type;location;lat;lon;timestamp;temperature;humidity
25128;DHT22;13107;51.304;6.866;2023-07-16T00:01:58;17.10;99.90
25128;DHT22;13107;51.304;6.866;2023-07-16T00:06:00;17.10;99.90
25128;DHT22;13107;51.304;6.866;2023-07-16T00:10:02;17.20;99.90
25128;DHT22;13107;51.304;6.866;2023-07-16T00:14:04;17.20;99.90
25128;DHT22;13107;51.304;6.866;2023-07-16T00:18:06;17.20;99.90
25128;DHT22;13107;51.304;6.866;2023-07-16T00:22:08;17.20;99.90
25128;DHT22;13107;51.304;6.866;2023-07-16T00:26:10;17.20;99.90
25128;DHT22;13107;51.304;6.866;2023-07-16T00:30:12;17.30;99.90
25128;DHT22;13107;51.304;6.866;2023-07-16T00:34:14;17.30;99.90
25128;DHT22;13107;51.304;6.866;2023-07-16T00:38:18;17.30;99.90
25128;DHT22;13107;51.304;6.866;2023-07-16T00:42:20;17.30;99.90
25128;DHT22;13107;51.304;6.866;2023-07-16T00:46:23;17.20;99.90
25128;DHT22;13107;51.304;6.866;2023-07-16T00:50:25;17.20;99.90
25128;DHT22;13107;51.304;6.866;2023-07-16T00:54:29;17.10;99.90
25128;DHT22;13107;51.304;6.866;2023-07-16T00:58:31;17.10;99.90
25128;DHT22;13107;51.304;6.866;2023-07-16T01:02:33;17.00;99.90
25128;DHT22;13107;51.304;6.866;2023-07-16T01:06:39;16.90;99.90
25128;DHT22;13107;51.304;6.866;2023-07-16T01:10:41;16.90;99.90
25128;DHT22;13107;51.304;6.866;2023-07-16T01:14:43;16.90;99.90
25128;DHT22;13107;51.304;6.866;2023-07-16T01:18:45;16.70;99.90
25128;DHT22;13107;51.304;6.866;2023-07-16T01:32:17;16.50;99.90
25128;DHT22;13107;51.304;6.866;2023-07-16T01:36:19;16.60;99.90
25128;DHT22;13107;51.304;6.866;2023-07-16T01:40:22;16.60;99.90
25128;DHT22;13107;51.304;6.866;2023-07-16T01:44:24;16.60;99.90
25128;DHT22;13107;51.304;6.866;2023-07-16T01:48:35;16.60;99.90
25128;DHT22;13107;51.304;6.866;2023-07-16T01:52:37;16.70;99.90
25128;DHT22;13107;51.304;6.866;2023-07-16T01:56:39;16.70;99.90
25128;DHT22;13107;51.304;6.866;2023-07-16T02:00:41;16.70;99.90
25128;DHT22;13107;51.304;6.866;2023-07-16T02:04:43;16.70;99.90
25128;DHT22;13107;51.304;6.866;2023-07-16T02:08:44;16.70;99.90
25128;DHT22;13107;51.304;6.866;2023-07-16T02:12:46;16.70;99.90
25128;DHT22;13107;51.304;6.866;2023-07-16T02:16:48;16.60;99.90
25128;DHT22;13107;51.304;6.866;2023-07-16T02:20:50;16.60;99.90
25128;DHT22;13107;51.304;6.866;2023-07-16T02:24:52;16.70;99.90
25128;DHT22;13107;51.304;6.866;2023-07-16T02:28:54;16.70;99.90
25128;DHT22;13107;51.304;6.866;2023-07-16T02:32:56;16.60;99.90
25128;DHT22;13107;51.304;6.866;2023-07-16T02:36:58;16.60;99.90
25128;DHT22;13107;51.304;6.866;2023-07-16T02:40:59;16.60;99.90
25128;DHT22;13107;51.304;6.866;2023-07-16T02:45:01;16.60;99.90
25128;DHT22;13107;51.304;6.866;2023-07-16T02:49:03;16.50;99.90
25128;DHT22;13107;51.304;6.866;2023-07-16T02:53:06;16.50;99.90
25128;DHT22;13107;51.304;6.866;2023-07-16T02:57:09;16.50;99.90
25128;DHT22;13107;51.304;6.866;2023-07-16T03:01:12;16.40;99.90
25128;DHT22;13107;51.304;6.866;2023-07-16T03:05:14;16.40;99.90
25128;DHT22;13107;51.304;6.866;2023-07-16T03:09:16;16.40;99.90
25128;DHT22;13107;51.304;6.866;2023-07-16T03:13:18;16.50;99.90
25128;DHT22;13107;51.304;6.866;2023-07-16T03:17:21;16.40;99.90
25128;DHT22;13107;51.304;6.866;2023-07-16T03:21:23;16.30;99.90
25128;DHT22;13107;51.304;6.866;2023-07-16T03:25:25;16.30;99.90
25128;DHT22;13107;51.304;6.866;2023-07-16T03:29:27;16.30;99.90
25128;DHT22;13107;51.304;6.866;2023-07-16T03:33:29;16.30;99.90
25128;DHT22;13107;51.304;6.866;2023-07-16T03:37:31;16.30;99.90
25128;DHT22;13107;51.304;6.866;2023-07-16T03:41:33;16.20;99.90
25128;DHT22;13107;51.304;6.866;2023-07-16T03:45:34;16.10;99.90
25128;DHT22;13107;51.304;6.866;2023-07-16T03:49:36;16.20;99.90
25128;DHT22;13107;51.304;6.866;2023-07-16T03:53:38;16.20;99.90
25128;DHT22;13107;51.304;6.866;2023-07-16T03:57:40;16.10;99.90
25128;DHT22;13107;51.304;6.866;2023-07-16T04:01:42;16.10;99.90
25128;DHT22;13107;51.304;6.866;2023-07-16T04:05:44;16.20;99.90
25128;DHT22;13107;51.304;6.866;2023-07-16T04:09:46;16.20;99.90
25128;DHT22;13107;51.304;6.866;2023-07-16T04:13:48;16.10;99.90
25128;DHT22;13107;51.304;6.866;2023-07-16T04:17:50;16.10;99.90
25128;DHT22;13107;51.304;6.866;2023-07-16T04:21:52;16.10;99.90
25128;DHT22;13107;51.304;6.866;2023-07-16T04:25:55;16.10;99.90
25128;DHT22;13107;51.304;6.866;2023-07-16T04:29:57;16.10;99.90
25128;DHT22;13107;51.304;6.866;2023-07-16T04:33:58;16.10;99.90
25128;DHT22;13107;51.304;6.866;2023-07-16T04:38:00;16.20;99.90
25128;DHT22;13107;51.304;6.866;2023-07-16T04:42:02;16.30;99.90
25128;DHT22;13107;51.304;6.866;2023-07-16T04:46:04;16.50;99.90
25128;DHT22;13107;51.304;6.866;2023-07-16T04:50:06;16.60;99.90
25128;DHT22;13107;51.304;6.866;2023-07-16T04:54:08;16.80;99.90
25128;DHT22;13107;51.304;6.866;2023-07-16T04:58:13;17.00;99.90
25128;DHT22;13107;51.304;6.866;2023-07-16T05:02:15;17.20;99.90
25128;DHT22;13107;51.304;6.866;2023-07-16T05:06:18;17.50;99.90
25128;DHT22;13107;51.304;6.866;2023-07-16T05:10:20;17.70;99.90
25128;DHT22;13107;51.304;6.866;2023-07-16T05:14:22;18.00;99.90
25128;DHT22;13107;51.304;6.866;2023-07-16T05:18:24;18.30;99.90
25128;DHT22;13107;51.304;6.866;2023-07-16T05:22:26;18.40;99.90
25128;DHT22;13107;51.304;6.866;2023-07-16T05:26:28;18.50;99.90
25128;DHT22;13107;51.304;6.866;2023-07-16T05:30:30;18.60;99.90
25128;DHT22;13107;51.304;6.866;2023-07-16T05:34:32;18.80;99.90
25128;DHT22;13107;51.304;6.866;2023-07-16T05:38:34;19.00;99.90
25128;DHT22;13107;51.304;6.866;2023-07-16T05:42:36;19.00;99.90
25128;DHT22;13107;51.304;6.866;2023-07-16T05:46:38;19.20;99.90
25128;DHT22;13107;51.304;6.866;2023-07-16T05:50:40;19.30;99.90
25128;DHT22;13107;51.304;6.866;2023-07-16T05:54:44;19.60;99.90
25128;DHT22;13107;51.304;6.866;2023-07-16T05:58:46;19.80;99.90
25128;DHT22;13107;51.304;6.866;2023-07-16T06:02:48;19.90;99.90
25128;DHT22;13107;51.304;6.866;2023-07-16T06:06:50;19.90;99.90
25128;DHT22;13107;51.304;6.866;2023-07-16T06:10:53;20.10;99.90
25128;DHT22;13107;51.304;6.866;2023-07-16T06:14:55;20.30;99.90
25128;DHT22;13107;51.304;6.866;2023-07-16T06:18:57;20.70;99.90
25128;DHT22;13107;51.304;6.866;2023-07-16T06:22:59;20.60;99.90
25128;DHT22;13107;51.304;6.866;2023-07-16T06:27:01;20.90;99.90
25128;DHT22;13107;51.304;6.866;2023-07-16T06:31:03;20.80;99.90
25128;DHT22;13107;51.304;6.866;2023-07-16T06:35:05;21.10;99.90
25128;DHT22;13107;51.304;6.866;2023-07-16T06:39:06;20.70;99.90
25128;DHT22;13107;51.304;6.866;2023-07-16T06:43:08;20.90;99.90
25128;DHT22;13107;51.304;6.866;2023-07-16T06:47:10;21.60;99.90
25128;DHT22;13107;51.304;6.866;2023-07-16T06:51:12;22.10;99.90
25128;DHT22;13107;51.304;6.866;2023-07-16T06:55:14;22.50;99.90
25128;DHT22;13107;51.304;6.866;2023-07-16T06:59:16;22.50;99.90
25128;DHT22;13107;51.304;6.866;2023-07-16T07:03:18;22.60;99.90
25128;DHT22;13107;51.304;6.866;2023-07-16T07:07:20;22.40;99.90
25128;DHT22;13107;51.304;6.866;2023-07-16T07:11:22;22.50;99.90
25128;DHT22;13107;51.304;6.866;2023-07-16T07:15:23;22.60;99.90
25128;DHT22;13107;51.304;6.866;2023-07-16T07:19:25;22.60;99.90
25128;DHT22;13107;51.304;6.866;2023-07-16T07:23:27;22.60;99.90
25128;DHT22;13107;51.304;6.866;2023-07-16T07:27:29;22.10;99.90
25128;DHT22;13107;51.304;6.866;2023-07-16T07:31:31;22.20;99.90
25128;DHT22;13107;51.304;6.866;2023-07-16T07:35:33;22.30;99.90
25128;DHT22;13107;51.304;6.866;2023-07-16T07:39:34;22.40;99.90
25128;DHT22;13107;51.304;6.866;2023-07-16T07:43:36;21.70;99.90
25128;DHT22;13107;51.304;6.866;2023-07-16T07:47:38;21.10;99.90
25128;DHT22;13107;51.304;6.866;2023-07-16T07:51:40;20.80;99.90
25128;DHT22;13107;51.304;6.866;2023-07-16T07:55:42;20.50;99.90
25128;DHT22;13107;51.304;6.866;2023-07-16T07:59:44;20.60;99.90
25128;DHT22;13107;51.304;6.866;2023-07-16T08:03:46;20.70;99.90
25128;DHT22;13107;51.304;6.866;2023-07-16T08:07:48;20.60;99.90
25128;DHT22;13107;51.304;6.866;2023-07-16T08:11:49;20.50;99.90
25128;DHT22;13107;51.304;6.866;2023-07-16T08:15:51;20.80;99.90
25128;DHT22;13107;51.304;6.866;2023-07-16T08:19:53;20.60;99.90
25128;DHT22;13107;51.304;6.866;2023-07-16T08:23:55;20.90;99.90
25128;DHT22;13107;51.304;6.866;2023-07-16T08:27:57;20.90;99.90
25128;DHT22;13107;51.304;6.866;2023-07-16T08:31:58;20.90;99.90
25128;DHT22;13107;51.304;6.866;2023-07-16T08:36:00;20.70;99.90
25128;DHT22;13107;51.304;6.866;2023-07-16T08:40:02;20.60;99.90
25128;DHT22;13107;51.304;6.866;2023-07-16T08:44:05;20.70;99.90
25128;DHT22;13107;51.304;6.866;2023-07-16T08:48:07;20.80;99.90
25128;DHT22;13107;51.304;6.866;2023-07-16T08:52:10;21.00;99.90
25128;DHT22;13107;51.304;6.866;2023-07-16T08:56:12;21.00;99.90
25128;DHT22;13107;51.304;6.866;2023-07-16T09:00:16;21.00;99.90
25128;DHT22;13107;51.304;6.866;2023-07-16T09:04:18;20.80;99.90
25128;DHT22;13107;51.304;6.866;2023-07-16T09:08:20;20.90;99.90
25128;DHT22;13107;51.304;6.866;2023-07-16T09:12:24;21.00;99.90
25128;DHT22;13107;51.304;6.866;2023-07-16T09:16:26;21.20;99.90
25128;DHT22;13107;51.304;6.866;2023-07-16T09:20:27;21.50;99.90
25128;DHT22;13107;51.304;6.866;2023-07-16T09:24:32;21.70;99.90
25128;DHT22;13107;51.304;6.866;2023-07-16T09:28:34;21.60;99.90
25128;DHT22;13107;51.304;6.866;2023-07-16T09:32:37;21.60;99.90
25128;DHT22;13107;51.304;6.866;2023-07-16T09:36:42;22.10;99.90
25128;DHT22;13107;51.304;6.866;2023-07-16T09:40:44;22.50;99.90
25128;DHT22;13107;51.304;6.866;2023-07-16T09:44:46;23.20;99.90
25128;DHT22;13107;51.304;6.866;2023-07-16T09:48:48;23.50;99.90
25128;DHT22;13107;51.304;6.866;2023-07-16T09:52:51;23.80;99.90
25128;DHT22;13107;51.304;6.866;2023-07-16T09:56:58;24.40;99.90
25128;DHT22;13107;51.304;6.866;2023-07-16T10:01:01;24.80;99.90
25128;DHT22;13107;51.304;6.866;2023-07-16T10:05:14;23.30;99.90
25128;DHT22;13107;51.304;6.866;2023-07-16T10:09:42;23.10;99.90
25128;DHT22;13107;51.304;6.866;2023-07-16T10:13:52;23.40;99.90
25128;DHT22;13107;51.304;6.866;2023-07-16T10:17:55;23.30;99.90
25128;DHT22;13107;51.304;6.866;2023-07-16T10:21:58;23.30;99.90
25128;DHT22;13107;51.304;6.866;2023-07-16T10:26:01;22.90;99.90
25128;DHT22;13107;51.304;6.866;2023-07-16T10:30:07;22.70;99.90
25128;DHT22;13107;51.304;6.866;2023-07-16T10:34:09;22.80;99.90
25128;DHT22;13107;51.304;6.866;2023-07-16T10:38:11;22.90;99.90
25128;DHT22;13107;51.304;6.866;2023-07-16T10:42:17;22.70;99.90
25128;DHT22;13107;51.304;6.866;2023-07-16T10:46:20;22.60;99.90
25128;DHT22;13107;51.304;6.866;2023-07-16T10:50:22;22.50;99.90
25128;DHT22;13107;51.304;6.866;2023-07-16T10:54:24;22.40;99.90
25128;DHT22;13107;51.304;6.866;2023-07-16T10:58:26;22.40;99.90
25128;DHT22;13107;51.304;6.866;2023-07-16T11:02:28;22.20;99.90
25128;DHT22;13107;51.304;6.866;2023-07-16T11:06:30;22.00;99.90
25128;DHT22;13107;51.304;6.866;2023-07-16T11:10:32;22.00;99.90
25128;DHT22;13107;51.304;6.866;2023-07-16T11:14:34;22.00;99.90
25128;DHT22;13107;51.304;6.866;2023-07-16T11:18:37;22.00;99.90
25128;DHT22;13107;51.304;6.866;2023-07-16T11:22:39;21.90;99.90
25128;DHT22;13107;51.304;6.866;2023-07-16T11:26:54;22.00;99.90
25128;DHT22;13107;51.304;6.866;2023-07-16T11:30:58;21.90;99.90
25128;DHT22;13107;51.304;6.866;2023-07-16T11:35:05;22.00;99.90
25128;DHT22;13107;51.304;6.866;2023-07-16T11:39:07;21.90;99.90
25128;DHT22;13107;51.304;6.866;2023-07-16T11:43:12;21.90;99.90
25128;DHT22;13107;51.304;6.866;2023-07-16T11:47:14;21.90;99.90
25128;DHT22;13107;51.304;6.866;2023-07-16T11:51:16;22.00;99.90
25128;DHT22;13107;51.304;6.866;2023-07-16T11:55:17;22.00;99.90
25128;DHT22;13107;51.304;6.866;2023-07-16T11:59:19;22.10;99.90
25128;DHT22;13107;51.304;6.866;2023-07-16T12:03:21;22.20;99.90
25128;DHT22;13107;51.304;6.866;2023-07-16T12:07:37;22.20;99.90
25128;DHT22;13107;51.304;6.866;2023-07-16T12:11:39;22.30;99.90
25128;DHT22;13107;51.304;6.866;2023-07-16T12:15:40;22.60;99.90
25128;DHT22;13107;51.304;6.866;2023-07-16T12:19:42;22.60;99.90
25128;DHT22;13107;51.304;6.866;2023-07-16T12:23:44;22.70;99.90
25128;DHT22;13107;51.304;6.866;2023-07-16T12:27:47;23.30;99.90
25128;DHT22;13107;51.304;6.866;2023-07-16T12:31:48;23.30;99.90
25128;DHT22;13107;51.304;6.866;2023-07-16T12:35:50;23.40;99.90
25128;DHT22;13107;51.304;6.866;2023-07-16T12:39:54;23.20;99.90
25128;DHT22;13107;51.304;6.866;2023-07-16T12:43:56;23.40;99.90
25128;DHT22;13107;51.304;6.866;2023-07-16T12:47:58;23.60;99.60
25128;DHT22;13107;51.304;6.866;2023-07-16T12:52:00;23.70;99.90
25128;DHT22;13107;51.304;6.866;2023-07-16T12:56:02;23.60;99.90
25128;DHT22;13107;51.304;6.866;2023-07-16T13:00:05;24.10;99.90
25128;DHT22;13107;51.304;6.866;2023-07-16T13:04:07;24.10;99.90
25128;DHT22;13107;51.304;6.866;2023-07-16T13:08:09;23.90;99.20
25128;DHT22;13107;51.304;6.866;2023-07-16T13:12:11;23.80;99.00
25128;DHT22;13107;51.304;6.866;2023-07-16T13:16:13;23.80;99.20
25128;DHT22;13107;51.304;6.866;2023-07-16T13:20:16;23.50;99.80
25128;DHT22;13107;51.304;6.866;2023-07-16T13:24:18;23.20;99.90
25128;DHT22;13107;51.304;6.866;2023-07-16T13:28:20;23.10;99.90
25128;DHT22;13107;51.304;6.866;2023-07-16T13:32:22;23.20;99.90
25128;DHT22;13107;51.304;6.866;2023-07-16T13:36:24;23.30;99.90
25128;DHT22;13107;51.304;6.866;2023-07-16T13:40:26;23.20;99.90
25128;DHT22;13107;51.304;6.866;2023-07-16T13:44:28;22.90;99.90
25128;DHT22;13107;51.304;6.866;2023-07-16T13:48:30;22.90;99.90
25128;DHT22;13107;51.304;6.866;2023-07-16T13:52:48;23.40;99.90
25128;DHT22;13107;51.304;6.866;2023-07-16T13:56:50;23.30;99.90
25128;DHT22;13107;51.304;6.866;2023-07-16T14:00:52;23.30;99.90
25128;DHT22;13107;51.304;6.866;2023-07-16T14:04:54;23.20;99.90
25128;DHT22;13107;51.304;6.866;2023-07-16T14:08:56;23.30;99.90
25128;DHT22;13107;51.304;6.866;2023-07-16T14:12:58;23.50;99.90
25128;DHT22;13107;51.304;6.866;2023-07-16T14:17:00;23.50;99.90
25128;DHT22;13107;51.304;6.866;2023-07-16T14:21:01;23.50;99.90
25128;DHT22;13107;51.304;6.866;2023-07-16T14:25:05;23.70;99.90
25128;DHT22;13107;51.304;6.866;2023-07-16T14:29:07;23.70;99.90
25128;DHT22;13107;51.304;6.866;2023-07-16T14:33:09;23.70;99.90
25128;DHT22;13107;51.304;6.866;2023-07-16T14:37:10;23.70;99.80
25128;DHT22;13107;51.304;6.866;2023-07-16T14:41:12;23.60;99.90
25128;DHT22;13107;51.304;6.866;2023-07-16T14:45:14;23.50;99.40
25128;DHT22;13107;51.304;6.866;2023-07-16T14:49:16;23.40;99.90
25128;DHT22;13107;51.304;6.866;2023-07-16T14:53:18;23.80;99.90
25128;DHT22;13107;51.304;6.866;2023-07-16T14:57:20;24.10;99.90
25128;DHT22;13107;51.304;6.866;2023-07-16T15:01:22;24.10;99.50
25128;DHT22;13107;51.304;6.866;2023-07-16T15:05:24;23.90;99.50
25128;DHT22;13107;51.304;6.866;2023-07-16T15:09:26;23.50;99.90
25128;DHT22;13107;51.304;6.866;2023-07-16T15:13:28;23.30;99.90
25128;DHT22;13107;51.304;6.866;2023-07-16T15:17:30;23.10;99.90
25128;DHT22;13107;51.304;6.866;2023-07-16T15:21:32;22.90;99.90
25128;DHT22;13107;51.304;6.866;2023-07-16T15:25:34;22.90;99.60
25128;DHT22;13107;51.304;6.866;2023-07-16T15:29:36;22.90;99.30
25128;DHT22;13107;51.304;6.866;2023-07-16T15:33:38;23.10;99.90
25128;DHT22;13107;51.304;6.866;2023-07-16T15:37:40;23.40;99.90
25128;DHT22;13107;51.304;6.866;2023-07-16T15:41:43;23.60;99.90
25128;DHT22;13107;51.304;6.866;2023-07-16T15:45:45;23.50;99.40
25128;DHT22;13107;51.304;6.866;2023-07-16T15:49:46;23.40;99.20
25128;DHT22;13107;51.304;6.866;2023-07-16T15:53:54;23.20;98.80
25128;DHT22;13107;51.304;6.866;2023-07-16T15:57:57;23.10;98.90
25128;DHT22;13107;51.304;6.866;2023-07-16T16:01:59;23.10;99.20
25128;DHT22;13107;51.304;6.866;2023-07-16T16:06:01;23.10;99.80
25128;DHT22;13107;51.304;6.866;2023-07-16T16:10:03;23.20;99.60
25128;DHT22;13107;51.304;6.866;2023-07-16T16:14:05;23.20;99.80
25128;DHT22;13107;51.304;6.866;2023-07-16T16:18:11;23.30;99.60
25128;DHT22;13107;51.304;6.866;2023-07-16T16:22:14;23.30;99.60
25128;DHT22;13107;51.304;6.866;2023-07-16T16:26:16;23.30;98.30
25128;DHT22;13107;51.304;6.866;2023-07-16T16:30:18;23.40;98.60
25128;DHT22;13107;51.304;6.866;2023-07-16T16:34:20;23.30;99.90
25128;DHT22;13107;51.304;6.866;2023-07-16T16:38:22;23.40;99.70
25128;DHT22;13107;51.304;6.866;2023-07-16T16:42:24;23.50;98.60
25128;DHT22;13107;51.304;6.866;2023-07-16T16:46:26;23.60;98.00
25128;DHT22;13107;51.304;6.866;2023-07-16T16:50:28;23.60;99.40
25128;DHT22;13107;51.304;6.866;2023-07-16T16:54:30;23.50;99.60
25128;DHT22;13107;51.304;6.866;2023-07-16T16:58:33;23.50;98.60
25128;DHT22;13107;51.304;6.866;2023-07-16T17:02:35;23.50;98.90
25128;DHT22;13107;51.304;6.866;2023-07-16T17:06:37;23.50;99.30
25128;DHT22;13107;51.304;6.866;2023-07-16T17:10:43;23.50;98.30
25128;DHT22;13107;51.304;6.866;2023-07-16T17:14:45;23.30;99.30
25128;DHT22;13107;51.304;6.866;2023-07-16T17:18:48;23.20;99.80
25128;DHT22;13107;51.304;6.866;2023-07-16T17:22:50;23.10;98.40
25128;DHT22;13107;51.304;6.866;2023-07-16T17:26:52;23.00;99.00
25128;DHT22;13107;51.304;6.866;2023-07-16T17:30:55;22.80;98.50
25128;DHT22;13107;51.304;6.866;2023-07-16T17:35:00;22.90;98.20
25128;DHT22;13107;51.304;6.866;2023-07-16T17:39:02;22.80;98.20
25128;DHT22;13107;51.304;6.866;2023-07-16T17:43:04;22.90;99.50
25128;DHT22;13107;51.304;6.866;2023-07-16T17:47:06;22.80;98.10
25128;DHT22;13107;51.304;6.866;2023-07-16T17:51:08;22.90;97.70
25128;DHT22;13107;51.304;6.866;2023-07-16T17:55:10;22.80;98.60
25128;DHT22;13107;51.304;6.866;2023-07-16T17:59:12;22.90;97.60
25128;DHT22;13107;51.304;6.866;2023-07-16T18:03:14;22.90;97.70
25128;DHT22;13107;51.304;6.866;2023-07-16T18:07:17;22.70;97.80
25128;DHT22;13107;51.304;6.866;2023-07-16T18:11:23;22.50;98.20
25128;DHT22;13107;51.304;6.866;2023-07-16T18:15:25;22.50;98.90
25128;DHT22;13107;51.304;6.866;2023-07-16T18:19:27;22.40;98.60
25128;DHT22;13107;51.304;6.866;2023-07-16T18:23:30;22.30;99.50
25128;DHT22;13107;51.304;6.866;2023-07-16T18:27:33;22.30;98.90
25128;DHT22;13107;51.304;6.866;2023-07-16T18:31:35;22.20;98.80
25128;DHT22;13107;51.304;6.866;2023-07-16T18:35:37;22.10;99.20
25128;DHT22;13107;51.304;6.866;2023-07-16T18:39:38;22.00;99.90
25128;DHT22;13107;51.304;6.866;2023-07-16T18:43:41;22.10;99.70
25128;DHT22;13107;51.304;6.866;2023-07-16T18:47:43;22.00;99.90
25128;DHT22;13107;51.304;6.866;2023-07-16T18:51:44;21.80;99.90
25128;DHT22;13107;51.304;6.866;2023-07-16T18:55:46;21.80;99.90
25128;DHT22;13107;51.304;6.866;2023-07-16T18:59:48;21.70;99.90
25128;DHT22;13107;51.304;6.866;2023-07-16T19:03:50;21.70;99.90
25128;DHT22;13107;51.304;6.866;2023-07-16T19:07:53;21.50;99.90
25128;DHT22;13107;51.304;6.866;2023-07-16T19:11:55;21.40;99.90
25128;DHT22;13107;51.304;6.866;2023-07-16T19:15:57;21.30;99.90
25128;DHT22;13107;51.304;6.866;2023-07-16T19:19:59;21.20;99.90
25128;DHT22;13107;51.304;6.866;2023-07-16T19:24:01;21.10;99.90
25128;DHT22;13107;51.304;6.866;2023-07-16T19:28:04;21.00;99.90
25128;DHT22;13107;51.304;6.866;2023-07-16T19:32:06;20.80;99.90
25128;DHT22;13107;51.304;6.866;2023-07-16T19:36:08;20.90;99.90
25128;DHT22;13107;51.304;6.866;2023-07-16T19:40:15;20.70;99.90
25128;DHT22;13107;51.304;6.866;2023-07-16T19:44:17;20.60;99.90
25128;DHT22;13107;51.304;6.866;2023-07-16T19:48:19;20.50;99.90
25128;DHT22;13107;51.304;6.866;2023-07-16T19:52:20;20.40;99.90
25128;DHT22;13107;51.304;6.866;2023-07-16T19:56:22;20.20;99.90
25128;DHT22;13107;51.304;6.866;2023-07-16T20:00:24;20.20;99.90
25128;DHT22;13107;51.304;6.866;2023-07-16T20:04:29;20.00;99.90
25128;DHT22;13107;51.304;6.866;2023-07-16T20:08:31;19.90;99.90
25128;DHT22;13107;51.304;6.866;2023-07-16T20:12:33;19.60;99.90
25128;DHT22;13107;51.304;6.866;2023-07-16T20:16:35;19.50;99.90
25128;DHT22;13107;51.304;6.866;2023-07-16T20:20:37;19.30;99.90
25128;DHT22;13107;51.304;6.866;2023-07-16T20:24:39;19.00;99.90
25128;DHT22;13107;51.304;6.866;2023-07-16T20:28:41;18.90;99.90
25128;DHT22;13107;51.304;6.866;2023-07-16T20:32:43;18.70;99.90
25128;DHT22;13107;51.304;6.866;2023-07-16T20:36:45;18.50;99.90
25128;DHT22;13107;51.304;6.866;2023-07-16T20:40:47;18.40;99.90
25128;DHT22;13107;51.304;6.866;2023-07-16T20:45:11;18.30;99.90
25128;DHT22;13107;51.304;6.866;2023-07-16T20:49:13;18.20;99.90
25128;DHT22;13107;51.304;6.866;2023-07-16T20:53:16;18.20;99.90
25128;DHT22;13107;51.304;6.866;2023-07-16T20:57:18;18.10;99.90
25128;DHT22;13107;51.304;6.866;2023-07-16T21:01:20;18.00;99.90
25128;DHT22;13107;51.304;6.866;2023-07-16T21:05:24;17.90;99.90
25128;DHT22;13107;51.304;6.866;2023-07-16T21:09:26;17.90;99.90
25128;DHT22;13107;51.304;6.866;2023-07-16T21:13:28;17.70;99.90
25128;DHT22;13107;51.304;6.866;2023-07-16T21:17:30;17.80;99.90
25128;DHT22;13107;51.304;6.866;2023-07-16T21:21:31;17.60;99.90
25128;DHT22;13107;51.304;6.866;2023-07-16T21:25:33;17.50;99.90
25128;DHT22;13107;51.304;6.866;2023-07-16T21:29:35;17.40;99.90
25128;DHT22;13107;51.304;6.866;2023-07-16T21:33:37;17.30;99.90
25128;DHT22;13107;51.304;6.866;2023-07-16T21:37:39;17.30;99.90
25128;DHT22;13107;51.304;6.866;2023-07-16T21:41:41;17.10;99.90
25128;DHT22;13107;51.304;6.866;2023-07-16T21:45:43;17.10;99.90
25128;DHT22;13107;51.304;6.866;2023-07-16T21:49:44;17.10;99.90
25128;DHT22;13107;51.304;6.866;2023-07-16T21:53:46;17.10;99.90
25128;DHT22;13107;51.304;6.866;2023-07-16T21:57:48;16.90;99.90
25128;DHT22;13107;51.304;6.866;2023-07-16T22:01:50;16.70;99.90
25128;DHT22;13107;51.304;6.866;2023-07-16T22:05:52;16.60;99.90
25128;DHT22;13107;51.304;6.866;2023-07-16T22:09:54;16.50;99.90
25128;DHT22;13107;51.304;6.866;2023-07-16T22:13:56;16.60;99.90
25128;DHT22;13107;51.304;6.866;2023-07-16T22:17:58;16.50;99.90
25128;DHT22;13107;51.304;6.866;2023-07-16T22:22:00;16.50;99.90
25128;DHT22;13107;51.304;6.866;2023-07-16T22:26:02;16.40;99.90
25128;DHT22;13107;51.304;6.866;2023-07-16T22:30:05;16.40;99.90
25128;DHT22;13107;51.304;6.866;2023-07-16T22:34:07;16.30;99.90
25128;DHT22;13107;51.304;6.866;2023-07-16T22:38:09;16.30;99.90
25128;DHT22;13107;51.304;6.866;2023-07-16T22:42:11;16.30;99.90
25128;DHT22;13107;51.304;6.866;2023-07-16T22:46:12;16.20;99.90
25128;DHT22;13107;51.304;6.866;2023-07-16T22:50:17;16.20;99.90
25128;DHT22;13107;51.304;6.866;2023-07-16T22:54:19;16.10;99.90
25128;DHT22;13107;51.304;6.866;2023-07-16T22:58:21;16.00;99.90
25128;DHT22;13107;51.304;6.866;2023-07-16T23:02:23;15.90;99.90
25128;DHT22;13107;51.304;6.866;2023-07-16T23:06:25;15.80;99.90
25128;DHT22;13107;51.304;6.866;2023-07-16T23:10:27;15.90;99.90
25128;DHT22;13107;51.304;6.866;2023-07-16T23:14:29;15.70;99.90
25128;DHT22;13107;51.304;6.866;2023-07-16T23:18:32;15.80;99.90
25128;DHT22;13107;51.304;6.866;2023-07-16T23:22:34;15.80;99.90
25128;DHT22;13107;51.304;6.866;2023-07-16T23:26:36;15.70;99.90
25128;DHT22;13107;51.304;6.866;2023-07-16T23:30:38;15.50;99.90
25128;DHT22;13107;51.304;6.866;2023-07-16T23:34:40;15.40;99.90
25128;DHT22;13107;51.304;6.866;2023-07-16T23:38:42;15.30;99.90
25128;DHT22;13107;51.304;6.866;2023-07-16T23:42:44;15.30;99.90
25128;DHT22;13107;51.304;6.866;2023-07-16T23:46:46;15.10;99.90
25128;DHT22;13107;51.304;6.866;2023-07-16T23:50:48;15.10;99.90
25128;DHT22;13107;51.304;6.866;2023-07-16T23:54:50;15.20;99.90
25128;DHT22;13107;51.304;6.866;2023-07-16T23:58:51;15.10;99.90
